Time;durP1;ratioP1;P1;durP2;ratioP2;P2;SDS_P1;SDS_P2;PMS_P1;PMS_P2;Temp;Humidity;BMP_temperature;BMP_pressure;BME280_temperature;BME280_humidity;BME280_pressure;Samples;Min_cycle;Max_cycle;Signal;HPM_P1;HPM_P2
2022/03/14 00:01:46;;;;;;;0.80;0.20;;;;;;;22.70;43.11;103179.44;5071960;28;20024;-60
2022/03/14 00:04:12;;;;;;;0.22;0.20;;;;;;;22.70;43.08;103179.44;5076132;28;20485;-61
2022/03/14 00:06:37;;;;;;;1.77;0.40;;;;;;;22.72;43.14;103182.91;5092334;28;20024;-60
2022/03/14 00:09:07;;;;;;;1.20;0.45;;;;;;;22.68;43.40;103184.22;5091881;28;20077;-61
2022/03/14 00:11:36;;;;;;;0.45;0.20;;;;;;;22.63;43.39;103190.09;5092526;28;20254;-60
2022/03/14 00:14:05;;;;;;;0.57;0.30;;;;;;;22.63;43.31;103186.50;5093948;28;20146;-60
2022/03/14 00:16:31;;;;;;;0.80;0.32;;;;;;;22.60;43.63;103189.53;5095661;28;20027;-60
2022/03/14 00:18:57;;;;;;;0.70;0.20;;;;;;;22.61;42.74;103191.25;5095654;28;20016;-60
2022/03/14 00:21:23;;;;;;;1.75;0.38;;;;;;;22.58;43.88;103186.06;5095563;28;20024;-60
2022/03/14 00:23:58;;;;;;;0.40;0.20;;;;;;;22.57;43.38;103190.69;5095668;28;20028;-60
2022/03/14 00:26:24;;;;;;;0.20;0.10;;;;;;;22.55;43.38;103184.50;5095453;28;20056;-60
2022/03/14 00:28:49;;;;;;;0.65;0.22;;;;;;;22.59;43.08;103187.81;5095383;28;20101;-60
2022/03/14 00:31:15;;;;;;;1.17;0.35;;;;;;;22.56;43.01;103185.34;5095161;28;20554;-60
2022/03/14 00:33:40;;;;;;;0.60;0.25;;;;;;;22.49;43.16;103183.16;5077811;28;20032;-61
2022/03/14 00:36:08;;;;;;;0.80;0.22;;;;;;;22.49;42.78;103187.78;5075100;28;20028;-60
2022/03/14 00:38:34;;;;;;;0.98;0.30;;;;;;;22.48;42.96;103186.91;5075527;28;20044;-60
2022/03/14 00:40:59;;;;;;;1.20;0.30;;;;;;;22.48;42.94;103186.91;5075306;28;20538;-61
2022/03/14 00:43:25;;;;;;;2.83;0.45;;;;;;;22.53;42.84;103189.25;5074784;28;20044;-60
2022/03/14 00:45:50;;;;;;;0.50;0.30;;;;;;;22.42;42.63;103190.25;5074993;28;20126;-61
2022/03/14 00:48:16;;;;;;;0.77;0.30;;;;;;;22.52;43.84;103193.88;5074646;28;20418;-60
2022/03/14 00:50:42;;;;;;;1.25;0.40;;;;;;;22.98;44.11;103189.56;5075333;28;20024;-60
2022/03/14 00:53:08;;;;;;;0.25;0.20;;;;;;;23.19;46.13;103191.28;5074870;28;20120;-61
2022/03/14 00:55:33;;;;;;;1.20;0.35;;;;;;;23.34;46.43;103189.78;5074628;28;20365;-60
2022/03/14 00:57:58;;;;;;;0.60;0.30;;;;;;;23.35;48.75;103192.41;5074239;28;20115;-61
2022/03/14 01:00:24;;;;;;;1.35;0.70;;;;;;;23.41;49.86;103193.66;5073815;28;20074;-60
2022/03/14 01:02:50;;;;;;;1.20;0.40;;;;;;;23.45;51.10;103199.72;5083444;28;20030;-61
2022/03/14 01:05:16;;;;;;;0.95;0.40;;;;;;;23.54;52.13;103191.47;5093506;28;20028;-60
2022/03/14 01:07:42;;;;;;;0.57;0.30;;;;;;;23.53;52.47;103189.75;5093544;28;20051;-61
2022/03/14 01:10:08;;;;;;;1.27;0.47;;;;;;;23.58;52.73;103192.94;5094719;28;20028;-61
2022/03/14 01:12:33;;;;;;;1.25;0.30;;;;;;;23.60;53.28;103196.38;5094538;28;20030;-60
2022/03/14 01:14:59;;;;;;;1.15;0.40;;;;;;;23.65;53.62;103187.69;5094834;28;20502;-61
2022/03/14 01:17:24;;;;;;;0.75;0.50;;;;;;;23.67;54.25;103197.50;5094238;28;20028;-61
2022/03/14 01:19:50;;;;;;;0.55;0.28;;;;;;;23.70;53.86;103191.72;5094684;28;20113;-60
2022/03/14 01:22:15;;;;;;;1.48;0.35;;;;;;;23.73;54.24;103198.81;5094315;28;20024;-61
2022/03/14 01:24:43;;;;;;;0.82;0.30;;;;;;;23.76;53.68;103200.38;5094074;28;20028;-61
2022/03/14 01:27:09;;;;;;;1.25;0.30;;;;;;;23.80;54.01;103199.06;5094123;28;20032;-60
2022/03/14 01:29:34;;;;;;;0.77;0.40;;;;;;;23.81;53.43;103198.03;5094301;28;20043;-61
2022/03/14 01:32:07;;;;;;;1.63;0.30;;;;;;;23.86;53.07;103195.72;5088706;28;20190;-60
2022/03/14 01:34:33;;;;;;;0.68;0.32;;;;;;;23.86;52.22;103196.59;5073848;28;20109;-60
2022/03/14 01:36:58;;;;;;;1.60;0.30;;;;;;;23.87;52.39;103208.44;5072844;28;20044;-60
2022/03/14 01:39:24;;;;;;;0.60;0.20;;;;;;;23.93;51.76;103202.31;5073662;28;20459;-60
2022/03/14 01:41:50;;;;;;;1.10;0.30;;;;;;;23.94;51.88;103207.66;5072722;28;20055;-60
2022/03/14 01:44:16;;;;;;;0.75;0.30;;;;;;;23.94;51.66;103199.41;5073672;28;20035;-61
2022/03/14 01:46:42;;;;;;;0.68;0.40;;;;;;;23.96;51.45;103202.88;5074150;28;20020;-60
2022/03/14 01:49:07;;;;;;;0.73;0.30;;;;;;;23.96;51.02;103210.25;5073566;28;20051;-61
2022/03/14 01:51:34;;;;;;;0.93;0.40;;;;;;;23.98;51.20;103216.47;5073663;28;20459;-61
2022/03/14 01:53:59;;;;;;;0.77;0.30;;;;;;;24.01;50.45;103203.28;5073690;28;20020;-60
2022/03/14 01:56:25;;;;;;;0.98;0.30;;;;;;;24.02;50.53;103204.16;5073448;28;20031;-60
2022/03/14 01:58:52;;;;;;;0.93;0.38;;;;;;;24.01;50.25;103207.91;5073620;28;20054;-61
2022/03/14 02:01:18;;;;;;;2.03;0.30;;;;;;;24.04;50.83;103213.13;5073126;28;20017;-61
2022/03/14 02:03:43;;;;;;;1.70;0.30;;;;;;;24.04;50.17;103213.13;5089264;28;20065;-60
2022/03/14 02:06:08;;;;;;;2.13;0.40;;;;;;;24.05;50.47;103206.59;5073345;28;20376;-60
2022/03/14 02:08:35;;;;;;;0.82;0.30;;;;;;;24.05;50.14;103212.09;5073205;28;20029;-60
2022/03/14 02:11:00;;;;;;;0.22;0.15;;;;;;;24.05;49.13;103208.50;5073487;28;20284;-60
2022/03/14 02:13:25;;;;;;;0.50;0.30;;;;;;;24.08;48.97;103211.78;5072987;28;20052;-60
2022/03/14 02:15:51;;;;;;;0.45;0.30;;;;;;;24.09;49.04;103208.03;5073297;28;20094;-60
2022/03/14 02:18:16;;;;;;;0.85;0.30;;;;;;;24.09;49.37;103208.03;5072995;28;20017;-60
2022/03/14 02:20:41;;;;;;;1.20;0.30;;;;;;;24.11;48.62;103210.63;5073289;28;20028;-60
2022/03/14 02:23:07;;;;;;;1.17;0.43;;;;;;;24.10;48.98;103209.75;5073021;28;20512;-61
2022/03/14 02:25:35;;;;;;;0.20;0.10;;;;;;;24.11;48.63;103211.47;5072881;28;20020;-60
2022/03/14 02:28:00;;;;;;;1.38;0.45;;;;;;;24.11;48.79;103205.97;5073031;28;20030;-61
2022/03/14 02:30:26;;;;;;;1.05;0.30;;;;;;;24.10;48.17;103209.75;5073011;28;20021;-60
2022/03/14 02:32:51;;;;;;;0.47;0.20;;;;;;;24.09;48.44;103210.78;5087237;28;20487;-61
2022/03/14 02:35:17;;;;;;;1.27;0.45;;;;;;;;;;5092872;28;20057;-61
2022/03/14 02:37:44;;;;;;;0.80;0.28;;;;;;;24.14;48.28;103204.81;5092243;28;20027;-60
2022/03/14 02:40:10;;;;;;;0.75;0.28;;;;;;;24.10;47.97;103209.75;5091667;28;20027;-60
2022/03/14 02:42:36;;;;;;;0.32;0.17;;;;;;;24.08;47.95;103206.28;5092850;28;20034;-61
2022/03/14 02:45:02;;;;;;;0.32;0.20;;;;;;;24.16;48.18;103213.75;5092997;28;20028;-60
2022/03/14 02:47:27;;;;;;;1.27;0.25;;;;;;;;;;5092534;28;20030;-60
2022/03/14 02:49:53;;;;;;;1.17;0.70;;;;;;;24.14;49.12;103208.41;5092961;28;20103;-60
2022/03/14 02:52:18;;;;;;;0.28;0.00;;;;;;;24.11;47.83;103200.47;5090825;28;20024;-60
2022/03/14 02:54:43;;;;;;;0.88;0.40;;;;;;;24.17;47.84;103205.34;5092911;28;20452;-60
2022/03/14 02:57:09;;;;;;;1.33;0.30;;;;;;;24.17;47.95;103207.25;5092569;28;20020;-61
2022/03/14 02:59:34;;;;;;;0.57;0.30;;;;;;;;;;5091356;28;20027;-60
2022/03/14 03:02:00;;;;;;;2.13;0.55;;;;;;;24.09;47.40;103202.53;5091437;28;20394;-61
2022/03/14 03:04:25;;;;;;;1.50;0.75;;;;;;;24.22;47.22;103205.78;5092469;28;20486;-61
2022/03/14 03:06:50;;;;;;;0.75;0.40;;;;;;;24.19;47.50;103208.84;5092746;28;20035;-60
2022/03/14 03:09:16;;;;;;;1.25;0.30;;;;;;;24.17;47.21;103227.34;5092164;28;20027;-60
2022/03/14 03:11:41;;;;;;;0.85;0.20;;;;;;;24.17;47.41;103215.47;5092690;28;20374;-60
2022/03/14 03:14:07;;;;;;;0.80;0.30;;;;;;;24.10;47.68;103215.25;5092448;28;20048;-60
2022/03/14 03:16:34;;;;;;;1.58;0.30;;;;;;;24.15;46.98;103221.13;5092465;28;20027;-61
2022/03/14 03:18:59;;;;;;;0.57;0.40;;;;;;;24.14;47.78;103216.66;5092526;28;20020;-60
2022/03/14 03:21:24;;;;;;;0.85;0.38;;;;;;;24.11;47.56;103222.47;5088476;28;20383;-60
2022/03/14 03:23:49;;;;;;;1.38;0.30;;;;;;;24.14;47.56;103222.16;5072332;28;20029;-61
2022/03/14 03:26:15;;;;;;;0.63;0.30;;;;;;;24.17;47.15;103238.34;5072056;28;20455;-61
2022/03/14 03:28:41;;;;;;;0.30;0.30;;;;;;;24.11;47.01;103227.97;5072139;28;20056;-60
2022/03/14 03:31:09;;;;;;;1.95;0.22;;;;;;;24.14;47.66;103232.28;5072147;28;20044;-60
2022/03/14 03:33:35;;;;;;;1.27;0.35;;;;;;;24.15;46.97;103237.63;5072129;28;20063;-61
2022/03/14 03:36:01;;;;;;;0.63;0.25;;;;;;;24.16;47.04;103236.59;5072169;28;20032;-60
2022/03/14 03:38:27;;;;;;;0.40;0.25;;;;;;;24.14;46.70;103235.91;5072029;28;20025;-60
2022/03/14 03:40:53;;;;;;;0.50;0.25;;;;;;;24.15;46.81;103223.88;5072147;28;20030;-61
2022/03/14 03:43:19;;;;;;;0.75;0.25;;;;;;;24.10;46.63;103230.88;5071728;28;20095;-60
2022/03/14 03:45:44;;;;;;;0.82;0.25;;;;;;;24.16;47.94;103235.75;5072060;28;20028;-60
2022/03/14 03:48:10;;;;;;;1.55;0.52;;;;;;;24.16;46.38;103227.50;5072643;28;20025;-60
2022/03/14 03:50:35;;;;;;;1.00;0.30;;;;;;;24.18;46.84;103226.31;5075919;28;20020;-60
2022/03/14 03:53:00;;;;;;;0.40;0.10;;;;;;;24.23;46.40;103235.00;5078624;28;20063;-61
2022/03/14 03:55:26;;;;;;;1.50;0.20;;;;;;;24.23;46.90;103234.13;5087134;28;20040;-60
2022/03/14 03:57:51;;;;;;;0.60;0.20;;;;;;;24.24;46.29;103242.22;5075901;28;20062;-60
2022/03/14 04:00:17;;;;;;;0.80;0.20;;;;;;;24.15;46.61;103226.63;5075905;28;20099;-61
2022/03/14 04:02:44;;;;;;;0.20;0.20;;;;;;;24.24;46.73;103211.13;5075839;28;20028;-60
2022/03/14 04:05:11;;;;;;;0.73;0.22;;;;;;;24.25;46.40;103221.97;5074559;28;20028;-60
2022/03/14 04:07:36;;;;;;;0.55;0.25;;;;;;;24.19;45.98;103208.84;5075773;28;20024;-60
2022/03/14 04:10:03;;;;;;;0.35;0.17;;;;;;;24.21;46.49;103256.28;5075975;28;20075;-60
2022/03/14 04:12:28;;;;;;;1.50;0.40;;;;;;;24.20;46.84;103260.06;5075367;28;20107;-60
2022/03/14 04:14:58;;;;;;;0.90;0.32;;;;;;;24.20;46.94;103260.06;5075586;28;20096;-61
2022/03/14 04:17:27;;;;;;;0.88;0.20;;;;;;;24.22;46.24;103266.25;5075067;28;20032;-60
2022/03/14 04:19:54;;;;;;;0.25;0.13;;;;;;;24.19;46.81;103255.56;5075494;28;20085;-60
2022/03/14 04:22:19;;;;;;;1.88;0.40;;;;;;;24.17;46.44;103237.47;5077777;28;20102;-60
2022/03/14 04:24:45;;;;;;;0.38;0.20;;;;;;;24.11;45.52;103227.97;5092323;28;20042;-60
2022/03/14 04:27:11;;;;;;;0.63;0.30;;;;;;;24.17;46.14;103235.59;5095260;28;20063;-60
2022/03/14 04:29:37;;;;;;;1.27;0.17;;;;;;;24.21;46.05;103217.78;5095768;28;20062;-60
2022/03/14 04:32:02;;;;;;;0.60;0.32;;;;;;;24.16;46.69;103213.75;5095402;28;20079;-61
2022/03/14 04:34:28;;;;;;;0.82;0.30;;;;;;;24.09;45.61;103208.03;5095220;28;20070;-60
2022/03/14 04:36:53;;;;;;;0.82;0.20;;;;;;;24.11;46.08;103205.13;5095498;28;20031;-60
2022/03/14 04:39:20;;;;;;;0.30;0.15;;;;;;;24.09;45.88;103205.28;5094968;28;20020;-60
2022/03/14 04:41:45;;;;;;;1.52;0.30;;;;;;;24.10;45.43;103204.25;5095448;28;20031;-60
2022/03/14 04:44:11;;;;;;;1.17;0.22;;;;;;;24.11;46.04;103214.22;5095188;28;20024;-61
2022/03/14 04:46:36;;;;;;;0.85;0.35;;;;;;;24.10;45.68;103215.25;5094092;28;20023;-60
2022/03/14 04:49:04;;;;;;;0.43;0.30;;;;;;;24.13;45.96;103219.56;5095171;28;20097;-61
2022/03/14 04:51:31;;;;;;;0.95;0.20;;;;;;;24.07;45.42;103215.56;5088556;28;20475;-60
2022/03/14 04:53:56;;;;;;;0.93;0.40;;;;;;;24.10;45.68;103214.38;5075231;28;20028;-60
2022/03/14 04:56:22;;;;;;;0.50;0.20;;;;;;;24.11;45.66;103211.47;5074653;28;20526;-60
2022/03/14 04:58:47;;;;;;;0.20;0.17;;;;;;;24.09;45.48;103213.53;5074768;28;20086;-60
2022/03/14 05:01:13;;;;;;;0.77;0.20;;;;;;;24.05;44.31;103208.50;5073440;28;20020;-60
2022/03/14 05:03:38;;;;;;;8.00;1.98;;;;;;;24.35;44.81;103219.16;5074554;28;20025;-61
2022/03/14 05:06:03;;;;;;;10.85;3.17;;;;;;;24.50;45.09;103216.75;5074598;28;20028;-61
2022/03/14 05:08:29;;;;;;;13.27;2.45;;;;;;;24.55;45.19;103230.94;5074360;28;20025;-59
2022/03/14 05:10:54;;;;;;;7.57;2.50;;;;;;;24.62;44.81;103237.53;5074539;28;20050;-60
2022/03/14 05:13:20;;;;;;;9.48;2.78;;;;;;;24.67;45.02;103248.91;5072812;28;20379;-60
2022/03/14 05:15:45;;;;;;;16.17;2.78;;;;;;;24.65;43.84;103236.34;5074473;28;20021;-60
2022/03/14 05:18:11;;;;;;;9.50;2.88;;;;;;;24.61;44.23;103211.03;5074293;28;20020;-61
2022/03/14 05:20:37;;;;;;;13.98;3.30;;;;;;;24.63;42.09;103206.25;5075012;28;20107;-60
2022/03/14 05:23:03;;;;;;;8.95;2.35;;;;;;;24.71;43.66;103214.59;5094613;28;20023;-61
2022/03/14 05:25:30;;;;;;;9.35;2.83;;;;;;;24.76;43.50;103205.84;5094471;28;20112;-60
2022/03/14 05:27:56;;;;;;;6.40;2.00;;;;;;;24.75;43.70;103207.75;5094394;28;20020;-61
2022/03/14 05:30:22;;;;;;;7.00;2.70;;;;;;;24.74;42.98;103208.78;5094236;28;20793;-60
2022/03/14 05:32:47;;;;;;;5.95;2.10;;;;;;;24.70;42.03;103204.63;5094308;28;20097;-60
2022/03/14 05:35:13;;;;;;;6.38;1.75;;;;;;;24.69;41.78;103207.50;5094317;28;20099;-60
2022/03/14 05:37:39;;;;;;;3.78;1.55;;;;;;;24.81;43.20;103211.75;5094282;28;20026;-60
2022/03/14 05:40:06;;;;;;;4.68;2.00;;;;;;;24.72;41.37;103209.94;5094199;28;20031;-60
2022/03/14 05:42:31;;;;;;;5.07;1.83;;;;;;;24.78;43.92;103209.31;5094001;28;20142;-60
2022/03/14 05:44:56;;;;;;;4.45;1.35;;;;;;;24.73;42.02;103211.69;5094192;28;20039;-60
2022/03/14 05:47:22;;;;;;;5.03;1.55;;;;;;;24.85;42.94;103218.66;5090556;28;20032;-61
2022/03/14 05:49:47;;;;;;;3.33;1.55;;;;;;;24.80;41.77;103219.13;5073725;28;20444;-60
2022/03/14 05:52:14;;;;;;;2.63;1.30;;;;;;;24.84;42.23;103215.03;5073908;28;20478;-61
2022/03/14 05:54:39;;;;;;;3.72;1.35;;;;;;;24.83;41.77;103213.31;5072935;28;20032;-61
2022/03/14 05:57:05;;;;;;;3.80;1.25;;;;;;;24.87;42.11;103214.75;5073155;28;20024;-60
2022/03/14 05:59:30;;;;;;;2.53;1.02;;;;;;;24.77;41.84;103202.94;5072364;28;20016;-61
2022/03/14 06:01:55;;;;;;;3.00;0.80;;;;;;;24.79;41.35;103209.16;5073485;28;20062;-60
2022/03/14 06:04:21;;;;;;;2.22;0.95;;;;;;;24.73;41.03;103201.53;5073632;28;20488;-60
2022/03/14 06:06:47;;;;;;;4.25;1.20;;;;;;;24.71;40.59;103198.09;5073476;28;20488;-60
2022/03/14 06:09:13;;;;;;;3.10;0.60;;;;;;;24.76;41.24;103190.22;5073223;28;20415;-61
2022/03/14 06:11:38;;;;;;;2.20;0.90;;;;;;;24.72;40.32;103187.94;5073046;28;20028;-60
2022/03/14 06:14:05;;;;;;;2.17;0.63;;;;;;;24.73;40.37;103181.41;5073505;28;20035;-60
2022/03/14 06:16:30;;;;;;;1.10;0.60;;;;;;;24.84;42.61;103193.03;5073060;28;20024;-60
2022/03/14 06:18:56;;;;;;;0.63;0.40;;;;;;;24.84;40.53;103193.03;5073176;28;20028;-60
2022/03/14 06:21:21;;;;;;;1.35;0.60;;;;;;;24.78;39.07;103193.66;5081041;28;20032;-60
2022/03/14 06:23:46;;;;;;;1.70;0.55;;;;;;;24.73;39.52;103187.78;5073037;28;20375;-60
2022/03/14 06:26:12;;;;;;;1.88;0.50;;;;;;;24.63;40.16;103189.75;5072974;28;20111;-60
2022/03/14 06:28:37;;;;;;;1.20;0.40;;;;;;;24.77;40.55;103191.06;5072850;28;20464;-61
2022/03/14 06:31:03;;;;;;;1.48;0.50;;;;;;;24.62;40.08;103184.41;5072838;28;20422;-60
2022/03/14 06:33:28;;;;;;;1.25;0.57;;;;;;;24.75;41.13;103179.38;5073089;28;20097;-60
2022/03/14 06:35:53;;;;;;;1.00;0.40;;;;;;;24.72;39.53;103182.44;5072767;28;20028;-61
2022/03/14 06:38:19;;;;;;;1.60;0.40;;;;;;;24.70;40.43;103187.25;5072675;28;20029;-60
2022/03/14 06:40:44;;;;;;;1.25;0.52;;;;;;;24.67;40.49;103185.66;5072916;28;20486;-60
2022/03/14 06:43:13;;;;;;;1.45;0.40;;;;;;;24.79;41.59;103181.63;5072702;28;20020;-61
2022/03/14 06:45:40;;;;;;;1.80;0.55;;;;;;;24.75;39.96;103174.72;5072916;28;20017;-60
2022/03/14 06:48:06;;;;;;;1.00;0.43;;;;;;;24.75;40.56;103177.47;5072611;28;20020;-61
2022/03/14 06:50:33;;;;;;;0.98;0.30;;;;;;;24.66;39.77;103175.66;5074446;28;20074;-60
2022/03/14 06:52:59;;;;;;;1.05;0.40;;;;;;;24.75;40.58;103177.47;5092933;28;20023;-59
2022/03/14 06:55:24;;;;;;;1.20;0.47;;;;;;;24.66;39.52;103175.66;5092642;28;20055;-60
2022/03/14 06:57:50;;;;;;;0.52;0.22;;;;;;;24.73;40.35;103179.53;5093067;28;20536;-61
2022/03/14 07:00:16;;;;;;;1.35;0.98;;;;;;;24.75;41.64;103180.22;5092793;28;20019;-60
2022/03/14 07:02:42;;;;;;;0.10;0.10;;;;;;;24.78;39.81;103179.06;5092717;28;20032;-61
2022/03/14 07:05:10;;;;;;;1.13;0.35;;;;;;;24.70;39.85;103179.84;5092653;28;20054;-60
2022/03/14 07:07:35;;;;;;;0.32;0.15;;;;;;;24.70;38.47;103185.34;5092469;28;20024;-60
2022/03/14 07:10:00;;;;;;;0.50;0.30;;;;;;;24.75;39.72;103182.97;5092591;28;20364;-60
2022/03/14 07:12:26;;;;;;;1.27;0.22;;;;;;;24.80;39.70;103191.63;5092393;28;20024;-60
2022/03/14 07:14:51;;;;;;;0.50;0.20;;;;;;;24.76;39.96;103195.72;5092635;28;20043;-60
2022/03/14 07:17:16;;;;;;;0.40;0.20;;;;;;;24.78;40.08;103182.66;5092346;28;20024;-60
2022/03/14 07:19:45;;;;;;;0.93;0.20;;;;;;;24.69;40.50;103183.63;5092498;28;20436;-60
2022/03/14 07:22:17;;;;;;;0.70;0.20;;;;;;;24.80;40.31;103172.38;5073873;28;20032;-60
2022/03/14 07:24:42;;;;;;;0.47;0.30;;;;;;;24.84;40.76;103181.16;5081764;28;20034;-60
2022/03/14 07:27:08;;;;;;;0.52;0.20;;;;;;;24.83;40.26;103191.28;5073183;28;20016;-60
2022/03/14 07:29:33;;;;;;;0.32;0.22;;;;;;;24.73;39.80;103185.03;5072192;28;20036;-60
2022/03/14 07:31:58;;;;;;;0.95;0.35;;;;;;;24.71;39.82;103187.09;5072078;28;20554;-61
2022/03/14 07:34:24;;;;;;;0.45;0.15;;;;;;;24.70;39.58;103188.09;5072020;28;20029;-60
2022/03/14 07:36:49;;;;;;;0.85;0.43;;;;;;;24.82;39.24;103188.69;5072239;28;20029;-60
2022/03/14 07:39:14;;;;;;;0.40;0.20;;;;;;;24.76;39.90;103190.22;5071966;28;20028;-60
2022/03/14 07:41:40;;;;;;;0.77;0.17;;;;;;;24.79;39.30;103189.91;5072266;28;20016;-60
2022/03/14 07:44:05;;;;;;;0.88;0.20;;;;;;;24.72;39.59;103185.19;5071075;28;20020;-61
2022/03/14 07:46:32;;;;;;;0.20;0.10;;;;;;;24.74;40.50;103189.50;5072236;28;20027;-60
2022/03/14 07:48:57;;;;;;;0.65;0.20;;;;;;;24.74;39.33;103186.75;5070901;28;20154;-60
2022/03/14 07:51:22;;;;;;;1.17;0.20;;;;;;;24.87;39.47;103200.13;5089303;28;20099;-61
2022/03/14 07:53:47;;;;;;;0.93;0.10;;;;;;;24.74;39.23;103200.50;5074498;28;20472;-60
2022/03/14 07:56:13;;;;;;;0.25;0.10;;;;;;;24.76;39.34;103194.84;5071978;28;20070;-60
2022/03/14 07:58:40;;;;;;;0.80;0.10;;;;;;;24.79;39.42;103200.03;5072022;28;20031;-60
2022/03/14 08:01:06;;;;;;;0.68;0.20;;;;;;;24.78;39.76;103199.16;5071957;28;20017;-60
2022/03/14 08:03:32;;;;;;;0.73;0.20;;;;;;;24.79;39.73;103198.16;5071721;28;20353;-60
2022/03/14 08:06:00;;;;;;;0.38;0.10;;;;;;;24.75;41.16;103188.50;5071994;28;20020;-61
2022/03/14 08:08:26;;;;;;;0.35;0.20;;;;;;;24.77;40.44;103191.94;5071650;28;20392;-61
2022/03/14 08:10:53;;;;;;;0.65;0.20;;;;;;;24.80;39.96;103193.50;5071963;28;20067;-60
2022/03/14 08:13:20;;;;;;;0.30;0.20;;;;;;;24.84;40.24;103193.03;5071704;28;20048;-61
2022/03/14 08:15:46;;;;;;;1.38;0.20;;;;;;;24.84;40.40;103197.66;5071903;28;20028;-60
2022/03/14 08:18:13;;;;;;;0.95;0.30;;;;;;;24.83;39.73;103195.94;5079171;28;20107;-60
2022/03/14 08:20:38;;;;;;;1.17;0.25;;;;;;;24.92;40.98;103189.50;5091529;28;20035;-61
2022/03/14 08:23:04;;;;;;;1.52;0.17;;;;;;;24.90;41.63;103189.66;5092010;28;20024;-60
2022/03/14 08:25:31;;;;;;;0.85;0.10;;;;;;;24.85;40.44;103186.50;5091940;28;20028;-60
2022/03/14 08:27:57;;;;;;;0.40;0.10;;;;;;;24.81;40.35;103185.09;5091906;28;20056;-61
2022/03/14 08:30:23;;;;;;;0.50;0.10;;;;;;;24.89;39.23;103190.69;5091632;28;20431;-60
2022/03/14 08:32:50;;;;;;;1.63;0.17;;;;;;;24.87;39.80;103189.97;5091761;28;20055;-61
2022/03/14 08:35:19;;;;;;;0.35;0.00;;;;;;;24.87;39.90;103187.22;5092324;28;20482;-61
2022/03/14 08:37:45;;;;;;;1.30;0.40;;;;;;;24.89;41.97;103185.19;5095512;28;20020;-60
2022/03/14 08:40:14;;;;;;;0.43;0.25;;;;;;;24.85;41.42;103180.13;5095261;28;20023;-60
2022/03/14 08:42:40;;;;;;;0.73;0.20;;;;;;;24.84;40.00;103173.75;5095577;28;20016;-61
2022/03/14 08:45:08;;;;;;;1.15;0.30;;;;;;;24.90;40.99;103181.41;5095234;28;20048;-60
2022/03/14 08:47:34;;;;;;;1.85;0.35;;;;;;;24.83;39.73;103177.53;5091341;28;20046;-61
2022/03/14 08:50:02;;;;;;;1.10;0.55;;;;;;;24.82;39.95;103181.31;5073610;28;20115;-61
2022/03/14 08:52:27;;;;;;;1.38;0.20;;;;;;;24.87;38.55;103178.09;5074736;28;20217;-60
2022/03/14 08:54:53;;;;;;;0.68;0.17;;;;;;;24.84;40.30;103182.00;5074930;28;20035;-60
2022/03/14 08:57:18;;;;;;;0.85;0.20;;;;;;;24.78;39.88;103177.16;5074430;28;20059;-60
2022/03/14 08:59:44;;;;;;;0.20;0.20;;;;;;;24.84;39.23;103176.50;5074849;28;20027;-60
2022/03/14 09:02:10;;;;;;;0.55;0.20;;;;;;;24.82;40.93;103173.06;5074679;28;20039;-60
2022/03/14 09:04:35;;;;;;;0.57;0.20;;;;;;;24.83;40.28;103174.78;5074909;28;20059;-60
2022/03/14 09:07:00;;;;;;;1.40;0.40;;;;;;;24.82;39.80;103178.56;5074702;28;20052;-60
2022/03/14 09:09:26;;;;;;;0.55;0.28;;;;;;;24.80;40.49;103169.59;5074225;28;20031;-61
2022/03/14 09:11:51;;;;;;;0.20;0.10;;;;;;;24.84;39.49;103165.50;5074934;28;20044;-60
2022/03/14 09:14:18;;;;;;;1.05;0.45;;;;;;;24.88;40.32;103161.44;5074562;28;20040;-60
2022/03/14 09:16:44;;;;;;;0.98;0.52;;;;;;;24.80;39.90;103166.00;5074595;28;20050;-60
2022/03/14 09:19:09;;;;;;;0.50;0.30;;;;;;;24.88;40.52;103163.31;5092112;28;20087;-60
2022/03/14 09:21:35;;;;;;;0.20;0.20;;;;;;;24.94;41.12;103175.56;5094369;28;20100;-61
2022/03/14 09:24:00;;;;;;;1.42;0.20;;;;;;;24.94;41.27;103167.31;5094601;28;20073;-60
2022/03/14 09:26:25;;;;;;;0.32;0.10;;;;;;;24.84;39.76;103176.50;5085540;28;20074;-60
2022/03/14 09:28:51;;;;;;;1.55;0.20;;;;;;;24.88;39.56;103172.44;5074267;28;20044;-60
2022/03/14 09:31:17;;;;;;;0.30;0.22;;;;;;;24.89;39.44;103173.31;5073171;28;20037;-61
2022/03/14 09:33:43;;;;;;;2.97;0.52;;;;;;;24.83;39.98;103180.28;5074133;28;20035;-60
2022/03/14 09:36:08;;;;;;;0.32;0.10;;;;;;;24.87;39.98;103170.72;5072921;28;20107;-61
2022/03/14 09:38:33;;;;;;;1.20;0.40;;;;;;;24.84;39.93;103182.00;5072685;28;20471;-61
2022/03/14 09:41:04;;;;;;;0.22;0.03;;;;;;;24.89;39.51;103185.19;5072794;28;20024;-60
2022/03/14 09:43:31;;;;;;;0.10;0.10;;;;;;;24.95;39.83;103177.31;5073825;28;20020;-61
2022/03/14 09:45:59;;;;;;;0.70;0.10;;;;;;;24.90;39.74;103178.66;5073494;28;20052;-61
2022/03/14 09:48:25;;;;;;;0.60;0.30;;;;;;;24.84;39.91;103176.50;5084683;28;20116;-60
2022/03/14 09:50:52;;;;;;;0.80;0.10;;;;;;;24.82;39.65;103178.56;5094093;28;20111;-61
2022/03/14 09:53:18;;;;;;;0.20;0.10;;;;;;;24.92;39.69;103181.25;5093747;28;20020;-61
2022/03/14 09:55:46;;;;;;;0.93;0.10;;;;;;;25.04;41.02;103181.91;5094348;28;20030;-60
2022/03/14 09:58:17;;;;;;;0.47;0.10;;;;;;;24.90;41.54;103178.66;5093675;28;20524;-60
2022/03/14 10:00:42;;;;;;;0.40;0.20;;;;;;;24.86;40.12;103184.63;5093905;28;20061;-60
2022/03/14 10:03:08;;;;;;;0.93;0.40;;;;;;;24.83;40.02;103182.19;5094021;28;20023;-60
2022/03/14 10:05:34;;;;;;;0.65;0.10;;;;;;;24.82;40.27;103178.56;5092337;28;20032;-60
2022/03/14 10:08:00;;;;;;;0.32;0.08;;;;;;;24.94;41.64;103183.84;5093588;28;20020;-60
2022/03/14 10:10:26;;;;;;;0.80;0.50;;;;;;;24.90;39.36;103178.66;5093683;28;20125;-60
2022/03/14 10:12:57;;;;;;;0.63;0.10;;;;;;;24.86;39.81;103171.75;5086732;28;20037;-60
2022/03/14 10:15:25;;;;;;;2.83;0.10;;;;;;;24.88;39.71;103177.94;5072968;28;20028;-61
2022/03/14 10:17:54;;;;;;;0.20;0.05;;;;;;;24.82;39.64;103178.56;5082104;28;20027;-60
2022/03/14 10:20:21;;;;;;;0.20;0.10;;;;;;;24.82;40.00;103180.44;5093246;28;20024;-61
2022/03/14 10:22:47;;;;;;;0.43;0.10;;;;;;;24.84;40.56;103179.25;5093333;28;20044;-61
2022/03/14 10:25:15;;;;;;;0.82;0.20;;;;;;;24.88;39.95;103188.94;5091984;28;20093;-60
2022/03/14 10:27:46;;;;;;;0.20;0.00;;;;;;;24.91;40.90;103176.75;5093037;28;20032;-61
2022/03/14 10:30:22;;;;;;;0.28;0.10;;;;;;;24.86;40.35;103170.88;5068269;28;20024;-60
2022/03/14 10:32:48;;;;;;;0.30;0.10;;;;;;;24.87;39.95;103161.59;5066468;28;20511;-60
2022/03/14 10:35:20;;;;;;;0.40;0.15;;;;;;;24.92;40.43;103155.63;5059578;28;20043;-61
2022/03/14 10:38:01;;;;;;;0.25;0.10;;;;;;;24.90;40.62;103158.53;5052864;28;20013;-60
2022/03/14 10:40:43;;;;;;;8.38;3.67;;;;;;;24.73;42.53;103157.53;5064699;28;20028;-58
2022/03/14 10:43:30;;;;;;;49.47;18.55;;;;;;;24.59;43.97;103144.31;5070784;28;20132;-60
2022/03/14 10:45:57;;;;;;;83.68;34.80;;;;;;;24.55;44.62;103145.69;5065306;28;20074;-60
2022/03/14 10:48:38;;;;;;;104.13;41.65;;;;;;;24.62;45.72;103149.50;5073919;28;20506;-60
2022/03/14 10:51:09;;;;;;;131.30;52.22;;;;;;;24.57;46.26;103146.38;5062966;28;20020;-60
2022/03/14 10:53:40;;;;;;;145.77;57.05;;;;;;;24.52;47.41;103154.22;5061703;28;20486;-60
2022/03/14 10:56:06;;;;;;;154.00;62.50;;;;;;;24.52;46.96;103151.47;5072237;28;20032;-60
2022/03/14 10:58:34;;;;;;;168.68;71.10;;;;;;;24.55;47.33;103160.28;5074623;28;20024;-60
2022/03/14 11:01:02;;;;;;;174.57;74.50;;;;;;;24.48;48.37;103150.06;5063260;28;20021;-60
2022/03/14 11:03:33;;;;;;;179.05;76.22;;;;;;;24.56;48.73;103156.50;5061770;28;20106;-60
2022/03/14 11:06:05;;;;;;;167.55;76.38;;;;;;;24.59;48.48;103144.31;5070481;28;20081;-60
2022/03/14 11:08:36;;;;;;;193.13;80.88;;;;;;;24.52;49.38;103148.72;5072293;28;20135;-60
2022/03/14 11:11:08;;;;;;;193.07;83.20;;;;;;;24.56;49.44;103150.16;5072490;28;20020;-60
2022/03/14 11:13:43;;;;;;;196.00;88.28;;;;;;;24.43;50.43;103149.66;5071834;28;20077;-60
2022/03/14 11:16:20;;;;;;;192.55;85.45;;;;;;;24.51;50.17;103160.72;5071846;28;20032;-60
2022/03/14 11:18:46;;;;;;;196.48;85.07;;;;;;;24.55;49.24;103148.41;5090833;28;20034;-60
2022/03/14 11:21:18;;;;;;;182.23;83.45;;;;;;;24.51;49.86;103155.22;5091331;28;20051;-59